Terminal Aerodrome Forecast
Issued by NWS

Home | Current Version | Previous Version | Text Only | Print | Product List | Glossary On
Versions: 1 2 3 4 5 6 7 8 9 10 11 12 13 14 15
736
FTUS42 KTAE 191323 AAA
TAFABY
TAF AMD
KABY 191323Z 1913/2012 25010KT P6SM BKN015 BKN060
      TEMPO 1914/1918 SCT015 BKN060
     FM191800 30010G16KT P6SM SCT060
     FM192100 31010G16KT P6SM SKC
     FM200000 34006KT P6SM SKC=

USA.gov is the U.S. government's official web portal to all federal, state and local government web resources and services.